createdAt,value
2022-12-19T00:04:49.196Z,101990.63
2022-12-19T00:09:52.504Z,101988.10
2022-12-19T00:14:55.919Z,101979.27
2022-12-19T00:20:01.790Z,101975.63
2022-12-19T00:25:05.817Z,101967.64
2022-12-19T00:30:11.661Z,101964.83
2022-12-19T00:35:15.510Z,101966.52
2022-12-19T00:40:18.820Z,101962.62
2022-12-19T00:45:22.646Z,101950.92
2022-12-19T00:50:25.953Z,101958.12
2022-12-19T00:55:29.672Z,101957.50
2022-12-19T01:00:33.030Z,101950.96
2022-12-19T01:05:36.505Z,101947.88
2022-12-19T01:10:46.915Z,101943.94
2022-12-19T01:15:50.598Z,101937.06
2022-12-19T01:20:53.910Z,101929.98
2022-12-19T01:25:57.937Z,101931.33
2022-12-19T01:31:01.247Z,101930.09
2022-12-19T01:36:07.953Z,101922.91
2022-12-19T01:41:11.994Z,101912.84
2022-12-19T01:46:15.833Z,101908.59
2022-12-19T01:51:24.644Z,101906.69
2022-12-19T01:56:34.826Z,101898.35
2022-12-19T02:01:50.883Z,101888.45
2022-12-19T02:06:57.692Z,101878.59
2022-12-19T02:12:01.802Z,101876.17
2022-12-19T02:17:21.605Z,101882.23
2022-12-19T02:22:34.131Z,101883.67
2022-12-19T02:27:56.292Z,101867.90
2022-12-19T02:33:13.734Z,101860.23
2022-12-19T02:38:39.263Z,101855.41
2022-12-19T02:43:49.010Z,101846.44
2022-12-19T02:48:59.113Z,101842.94
2022-12-19T02:54:02.722Z,101824.09
2022-12-19T02:59:19.038Z,101807.48
2022-12-19T03:04:34.843Z,101801.45
2022-12-19T03:09:51.161Z,101788.79
2022-12-19T03:14:57.199Z,101797.02
2022-12-19T03:20:01.087Z,101787.32
2022-12-19T03:25:04.909Z,101772.17
2022-12-19T03:30:12.533Z,101768.12
2022-12-19T03:35:23.482Z,101764.45
2022-12-19T03:40:30.824Z,101769.90
2022-12-19T03:45:40.246Z,101779.04
2022-12-19T03:50:55.150Z,101782.67
2022-12-19T03:56:06.961Z,101782.98
2022-12-19T04:01:10.491Z,101775.47
2022-12-19T04:06:15.112Z,101773.62
2022-12-19T04:11:20.978Z,101779.80
2022-12-19T04:17:00.230Z,101785.91
2022-12-19T04:22:10.505Z,101787.30
2022-12-19T04:27:15.074Z,101785.02
2022-12-19T04:32:19.597Z,101776.49
2022-12-19T04:37:24.122Z,101767.42
2022-12-19T04:42:27.434Z,101762.37
2022-12-19T04:47:30.948Z,101762.73
2022-12-19T04:52:34.468Z,101757.52
2022-12-19T04:57:38.080Z,101750.75
2022-12-19T05:02:41.731Z,101752.90
2022-12-19T05:07:47.274Z,101749.27
2022-12-19T05:12:50.785Z,101755.11
2022-12-19T05:17:54.290Z,101749.21
2022-12-19T05:22:59.218Z,101733.58
2022-12-19T05:28:04.805Z,101734.91
2022-12-19T05:33:08.631Z,101732.16
2022-12-19T05:38:12.141Z,101726.36
2022-12-19T05:43:15.556Z,101730.70
2022-12-19T05:48:18.864Z,101729.08
2022-12-19T05:53:25.983Z,101727.81
2022-12-19T05:58:31.632Z,101729.13
2022-12-19T06:03:35.122Z,101716.81
2022-12-19T06:08:39.375Z,101714.52
2022-12-19T06:13:42.684Z,101711.11
2022-12-19T06:18:47.671Z,101703.71
2022-12-19T06:23:51.573Z,101706.40
2022-12-19T06:28:56.081Z,101705.39
2022-12-19T06:33:59.618Z,101703.06
2022-12-19T06:39:04.460Z,101705.77
2022-12-19T06:44:11.396Z,101703.98
2022-12-19T06:49:15.997Z,101714.08
2022-12-19T06:54:19.412Z,101719.48
2022-12-19T06:59:23.233Z,101709.09
2022-12-19T07:04:33.363Z,101709.23
2022-12-19T07:09:37.122Z,101703.13
2022-12-19T07:14:40.435Z,101699.13
2022-12-19T07:19:44.151Z,101698.10
2022-12-19T07:24:47.769Z,101691.59
2022-12-19T07:29:50.979Z,101685.26
2022-12-19T07:34:54.597Z,101683.49
2022-12-19T07:39:58.320Z,101681.81
2022-12-19T07:45:01.834Z,101681.77
2022-12-19T07:50:06.269Z,101672.27
2022-12-19T07:55:10.297Z,101663.70
2022-12-19T08:00:13.809Z,101663.32
2022-12-19T08:05:17.534Z,101661.35
2022-12-19T08:10:23.089Z,101653.73
2022-12-19T08:15:26.619Z,101640.48
2022-12-19T08:20:30.127Z,101629.17
2022-12-19T08:25:33.821Z,101616.10
2022-12-19T08:30:39.773Z,101615.41
2022-12-19T08:35:43.127Z,101613.85
2022-12-19T08:40:53.948Z,101613.42
2022-12-19T08:45:57.515Z,101605.92
2022-12-19T08:51:04.062Z,101611.35
2022-12-19T08:56:12.959Z,101604.70
2022-12-19T09:01:21.341Z,101596.48
2022-12-19T09:06:25.672Z,101590.22
2022-12-19T09:11:29.138Z,101578.27
2022-12-19T09:16:32.891Z,101568.96
2022-12-19T09:21:36.476Z,101564.02
2022-12-19T09:26:40.403Z,101552.17
2022-12-19T09:31:43.919Z,101538.81
2022-12-19T09:36:47.230Z,101535.07
2022-12-19T09:42:08.459Z,101524.27
2022-12-19T09:47:25.308Z,101489.23
2022-12-19T09:52:41.397Z,101492.79
2022-12-19T09:58:10.408Z,101488.23
2022-12-19T10:03:40.263Z,101472.83
2022-12-19T10:09:11.807Z,101440.17
2022-12-19T10:14:08.882Z,101428.17
2022-12-19T10:19:34.944Z,101423.80
2022-12-19T10:24:57.595Z,101413.76
2022-12-19T10:30:19.369Z,101419.15
2022-12-19T10:35:37.903Z,101410.83
2022-12-19T10:41:15.730Z,101403.19
2022-12-19T10:46:41.098Z,101393.20
2022-12-19T10:52:08.196Z,101369.85
2022-12-19T10:57:30.325Z,101352.76
2022-12-19T11:02:40.068Z,101351.27
2022-12-19T11:08:00.915Z,101341.80
2022-12-19T11:18:35.180Z,101333.39
2022-12-19T11:27:40.680Z,101327.66
2022-12-19T11:30:07.045Z,101324.50
2022-12-19T11:35:21.652Z,101302.83
2022-12-19T11:40:43.153Z,101280.55
2022-12-19T11:46:08.588Z,101265.14
2022-12-19T11:51:36.877Z,101250.45
2022-12-19T11:56:40.493Z,101236.67
2022-12-19T12:01:47.698Z,101234.36
2022-12-19T12:06:53.605Z,101230.84
2022-12-19T12:19:44.516Z,101213.69
2022-12-19T12:31:01.842Z,101217.87
2022-12-19T12:31:07.463Z,101223.79
2022-12-19T12:32:03.193Z,101216.22
2022-12-19T12:35:51.088Z,101218.20
2022-12-19T12:40:43.767Z,101209.88
2022-12-19T12:45:47.598Z,101193.44
2022-12-19T12:50:55.322Z,101176.73
2022-12-19T12:56:02.961Z,101161.77
2022-12-19T13:01:12.137Z,101153.59
2022-12-19T13:06:37.999Z,101156.35
2022-12-19T13:12:07.421Z,101150.98
2022-12-19T13:17:13.632Z,101138.27
2022-12-19T13:22:38.936Z,101134.27
2022-12-19T13:27:48.599Z,101111.36
2022-12-19T13:32:52.105Z,101102.00
2022-12-19T13:39:47.803Z,101100.61
2022-12-19T13:43:46.440Z,101087.77
2022-12-19T13:48:57.129Z,101074.05
2022-12-19T13:54:00.543Z,101058.68
2022-12-19T13:59:05.287Z,101055.39
2022-12-19T14:04:25.182Z,101045.65
2022-12-19T14:11:26.328Z,101045.89
2022-12-19T14:15:14.815Z,101037.08
2022-12-19T14:21:36.454Z,101022.56
2022-12-19T14:28:18.228Z,101022.83
2022-12-19T14:31:21.337Z,101027.04
2022-12-19T14:36:29.976Z,101024.92
2022-12-19T14:42:02.113Z,101010.65
2022-12-19T14:54:07.205Z,101021.56
2022-12-19T14:54:25.925Z,101021.13
2022-12-19T14:58:53.487Z,101004.18
2022-12-19T15:04:53.133Z,100986.02
2022-12-19T15:10:59.048Z,100979.98
2022-12-19T15:14:59.179Z,100971.02
2022-12-19T15:20:03.275Z,100959.10
2022-12-19T15:25:17.579Z,100944.48
2022-12-19T15:30:35.959Z,100932.40
2022-12-19T15:35:42.388Z,100927.98
2022-12-19T15:40:46.002Z,100930.43
2022-12-19T15:45:56.892Z,100929.30
2022-12-19T15:51:00.097Z,100915.13
2022-12-19T15:56:03.724Z,100912.58
2022-12-19T16:01:07.133Z,100908.35
2022-12-19T16:06:20.521Z,100905.20
2022-12-19T16:11:25.030Z,100894.02
2022-12-19T16:16:29.898Z,100889.45
2022-12-19T16:21:34.454Z,100876.63
2022-12-19T16:26:40.630Z,100853.77
2022-12-19T16:31:43.920Z,100847.02
2022-12-19T16:36:48.946Z,100837.55
2022-12-19T16:41:52.266Z,100827.65
2022-12-19T16:46:59.046Z,100825.94
2022-12-19T16:52:02.467Z,100828.41
2022-12-19T16:57:08.484Z,100815.23
2022-12-19T17:02:26.884Z,100813.64
2022-12-19T17:07:32.277Z,100811.35
2022-12-19T17:12:38.741Z,100805.52
2022-12-19T17:17:42.508Z,100817.65
2022-12-19T17:22:46.798Z,100816.02
2022-12-19T17:27:50.517Z,100809.34
2022-12-19T17:32:55.777Z,100796.08
2022-12-19T17:37:59.083Z,100799.21
2022-12-19T17:43:04.959Z,100788.59
2022-12-19T17:48:23.421Z,100780.17
2022-12-19T17:53:27.167Z,100780.80
2022-12-19T17:58:30.453Z,100764.46
2022-12-19T18:03:34.140Z,100762.88
2022-12-19T18:08:37.685Z,100760.86
2022-12-19T18:13:41.202Z,100751.80
2022-12-19T18:18:45.851Z,100758.09
2022-12-19T18:23:49.468Z,100754.52
2022-12-19T18:28:52.772Z,100727.29
2022-12-19T18:34:02.053Z,100705.54
2022-12-19T18:39:24.233Z,100696.77
2022-12-19T18:44:27.484Z,100688.02
2022-12-19T18:49:36.120Z,100670.00
2022-12-19T18:54:39.744Z,100665.69
2022-12-19T18:59:43.150Z,100661.72
2022-12-19T19:04:46.567Z,100659.13
2022-12-19T19:09:49.980Z,100657.98
2022-12-19T19:14:55.127Z,100657.25
2022-12-19T19:20:00.291Z,100660.85
2022-12-19T19:25:04.320Z,100657.26
2022-12-19T19:30:12.124Z,100634.17
2022-12-19T19:35:20.115Z,100625.69
2022-12-19T19:40:24.619Z,100623.40
2022-12-19T19:45:28.327Z,100606.72
2022-12-19T19:50:32.438Z,100587.48
2022-12-19T19:55:35.750Z,100573.44
2022-12-19T20:00:40.939Z,100557.43
2022-12-19T20:05:44.618Z,100555.52
2022-12-19T20:10:57.874Z,100548.70
2022-12-19T20:16:36.770Z,100533.47
2022-12-19T20:21:44.513Z,100516.99
2022-12-19T20:26:49.381Z,100506.31
2022-12-19T20:31:52.801Z,100505.23
2022-12-19T20:36:56.301Z,100507.84
2022-12-19T20:41:59.920Z,100510.31
2022-12-19T20:47:04.150Z,100516.27
2022-12-19T20:52:07.776Z,100517.45
2022-12-19T20:57:13.960Z,100517.45
2022-12-19T21:02:20.295Z,100511.13
2022-12-19T21:07:28.758Z,100501.23
2022-12-19T21:12:32.275Z,100500.77
2022-12-19T21:17:35.689Z,100496.98
2022-12-19T21:22:39.102Z,100491.33
2022-12-19T21:27:48.699Z,100470.52
2022-12-19T21:32:52.172Z,100453.44
2022-12-19T21:37:55.993Z,100446.40
2022-12-19T21:42:59.327Z,100445.55
2022-12-19T21:48:02.729Z,100445.77
2022-12-19T21:53:06.242Z,100431.23
2022-12-19T21:58:09.654Z,100426.52
2022-12-19T22:03:18.132Z,100419.71
2022-12-19T22:08:28.775Z,100405.95
2022-12-19T22:13:32.074Z,100391.25
2022-12-19T22:25:47.003Z,100365.18
2022-12-19T22:30:50.417Z,100360.00
2022-12-19T22:35:54.442Z,100354.27
2022-12-19T22:41:02.666Z,100353.18
2022-12-19T22:46:23.258Z,100339.93
2022-12-19T22:51:28.139Z,100336.50
2022-12-19T22:56:33.286Z,100336.71
2022-12-19T23:01:41.992Z,100331.35
2022-12-19T23:06:52.603Z,100323.36
2022-12-19T23:12:10.521Z,100309.20
2022-12-19T23:17:15.717Z,100298.79
2022-12-19T23:22:19.128Z,100296.36
2022-12-19T23:27:22.742Z,100292.77
2022-12-19T23:32:26.188Z,100284.99
2022-12-19T23:37:29.680Z,100277.90
2022-12-19T23:42:33.131Z,100269.95
2022-12-19T23:47:36.706Z,100263.09
2022-12-19T23:52:40.116Z,100257.34
2022-12-19T23:57:43.647Z,100256.42
